Terminal Aerodrome Forecast
Issued by NWS

Home | Current Version | Previous Version | Graphics & Text | Print | Product List | Glossary On
Versions: 1 2 3 4 5 6 7 8 9 10 11 12 13 14
062
FTUS43 KGRB 262325
TAFMTW
TAF
KMTW 262325Z 2700/2724 17007KT P6SM VCSH SCT025 OVC040
      TEMPO 2701/2705 BKN025
     FM270500 28006KT 6SM -RA BR OVC015
     FM270700 33006KT 4SM RA BR OVC008
      TEMPO 2710/2714 2SM RA BR OVC004
     FM271700 27011G19KT 4SM -RA OVC009
     FM272000 26013G23KT P6SM OVC015
     FM272200 25012G20KT P6SM OVC020=

USA.gov is the U.S. government's official web portal to all federal, state and local government web resources and services.